sensor_id;sensor_type;location;lat;lon;timestamp;P1;durP1;ratioP1;P2;durP2;ratioP2
9720;SDS011;4899;42.644;23.366;2023-08-30T00:00:36;15.30;;;13.10;;
9720;SDS011;4899;42.644;23.366;2023-08-30T00:03:01;16.03;;;13.20;;
9720;SDS011;4899;42.644;23.366;2023-08-30T00:05:27;13.43;;;11.13;;
9720;SDS011;4899;42.644;23.366;2023-08-30T00:07:53;15.37;;;11.23;;
9720;SDS011;4899;42.644;23.366;2023-08-30T00:10:19;11.50;;;10.30;;
9720;SDS011;4899;42.644;23.366;2023-08-30T00:12:44;14.60;;;11.90;;
9720;SDS011;4899;42.644;23.366;2023-08-30T00:15:09;12.93;;;11.70;;
9720;SDS011;4899;42.644;23.366;2023-08-30T00:17:35;13.13;;;11.80;;
9720;SDS011;4899;42.644;23.366;2023-08-30T00:20:00;15.13;;;13.43;;
9720;SDS011;4899;42.644;23.366;2023-08-30T00:22:26;13.53;;;11.57;;
9720;SDS011;4899;42.644;23.366;2023-08-30T00:24:52;10.17;;;9.10;;
9720;SDS011;4899;42.644;23.366;2023-08-30T00:27:18;11.13;;;10.13;;
9720;SDS011;4899;42.644;23.366;2023-08-30T00:29:45;10.53;;;8.87;;
9720;SDS011;4899;42.644;23.366;2023-08-30T00:32:11;10.13;;;9.13;;
9720;SDS011;4899;42.644;23.366;2023-08-30T00:34:36;10.40;;;7.83;;
9720;SDS011;4899;42.644;23.366;2023-08-30T00:37:02;8.97;;;8.07;;
9720;SDS011;4899;42.644;23.366;2023-08-30T00:39:28;8.10;;;7.30;;
9720;SDS011;4899;42.644;23.366;2023-08-30T00:41:53;7.90;;;7.07;;
9720;SDS011;4899;42.644;23.366;2023-08-30T00:44:19;8.07;;;7.07;;
9720;SDS011;4899;42.644;23.366;2023-08-30T00:46:44;8.57;;;7.77;;
9720;SDS011;4899;42.644;23.366;2023-08-30T00:49:10;8.37;;;7.57;;
9720;SDS011;4899;42.644;23.366;2023-08-30T00:51:35;9.07;;;8.17;;
9720;SDS011;4899;42.644;23.366;2023-08-30T00:54:01;8.70;;;6.73;;
9720;SDS011;4899;42.644;23.366;2023-08-30T00:56:27;10.20;;;7.83;;
9720;SDS011;4899;42.644;23.366;2023-08-30T00:58:54;8.37;;;7.50;;
9720;SDS011;4899;42.644;23.366;2023-08-30T01:01:20;8.27;;;7.57;;
9720;SDS011;4899;42.644;23.366;2023-08-30T01:03:46;8.83;;;7.27;;
9720;SDS011;4899;42.644;23.366;2023-08-30T01:06:11;9.20;;;8.30;;
9720;SDS011;4899;42.644;23.366;2023-08-30T01:08:38;8.87;;;7.83;;
9720;SDS011;4899;42.644;23.366;2023-08-30T01:11:08;9.73;;;7.67;;
9720;SDS011;4899;42.644;23.366;2023-08-30T01:13:44;11.13;;;7.97;;
9720;SDS011;4899;42.644;23.366;2023-08-30T01:16:13;10.90;;;8.03;;
9720;SDS011;4899;42.644;23.366;2023-08-30T01:18:42;10.83;;;7.70;;
9720;SDS011;4899;42.644;23.366;2023-08-30T01:21:09;8.13;;;7.33;;
9720;SDS011;4899;42.644;23.366;2023-08-30T01:23:48;9.63;;;8.20;;
9720;SDS011;4899;42.644;23.366;2023-08-30T01:26:42;8.80;;;7.90;;
9720;SDS011;4899;42.644;23.366;2023-08-30T01:29:16;10.03;;;8.30;;
9720;SDS011;4899;42.644;23.366;2023-08-30T01:31:44;10.07;;;8.10;;
9720;SDS011;4899;42.644;23.366;2023-08-30T01:34:12;8.10;;;7.17;;
9720;SDS011;4899;42.644;23.366;2023-08-30T01:36:40;8.63;;;7.13;;
9720;SDS011;4899;42.644;23.366;2023-08-30T01:39:08;7.83;;;7.00;;
9720;SDS011;4899;42.644;23.366;2023-08-30T01:41:35;8.57;;;7.60;;
9720;SDS011;4899;42.644;23.366;2023-08-30T01:44:07;7.47;;;6.87;;
9720;SDS011;4899;42.644;23.366;2023-08-30T01:46:34;11.13;;;7.60;;
9720;SDS011;4899;42.644;23.366;2023-08-30T01:49:03;7.93;;;6.73;;
9720;SDS011;4899;42.644;23.366;2023-08-30T01:51:30;8.17;;;7.37;;
9720;SDS011;4899;42.644;23.366;2023-08-30T01:53:56;9.00;;;6.70;;
9720;SDS011;4899;42.644;23.366;2023-08-30T01:56:22;7.20;;;6.33;;
9720;SDS011;4899;42.644;23.366;2023-08-30T01:58:48;7.37;;;6.67;;
9720;SDS011;4899;42.644;23.366;2023-08-30T02:01:14;8.30;;;7.50;;
9720;SDS011;4899;42.644;23.366;2023-08-30T02:03:39;10.17;;;7.60;;
9720;SDS011;4899;42.644;23.366;2023-08-30T02:06:09;10.87;;;8.23;;
9720;SDS011;4899;42.644;23.366;2023-08-30T02:09:14;10.33;;;7.77;;
9720;SDS011;4899;42.644;23.366;2023-08-30T02:11:34;8.73;;;7.90;;
9720;SDS011;4899;42.644;23.366;2023-08-30T02:14:01;9.33;;;8.40;;
9720;SDS011;4899;42.644;23.366;2023-08-30T02:16:31;9.93;;;8.70;;
9720;SDS011;4899;42.644;23.366;2023-08-30T02:18:58;10.20;;;8.60;;
9720;SDS011;4899;42.644;23.366;2023-08-30T02:21:24;10.97;;;9.03;;
9720;SDS011;4899;42.644;23.366;2023-08-30T02:23:52;11.07;;;8.77;;
9720;SDS011;4899;42.644;23.366;2023-08-30T02:26:18;12.73;;;9.57;;
9720;SDS011;4899;42.644;23.366;2023-08-30T02:28:49;9.33;;;8.43;;
9720;SDS011;4899;42.644;23.366;2023-08-30T02:31:17;9.70;;;8.70;;
9720;SDS011;4899;42.644;23.366;2023-08-30T02:33:43;12.50;;;8.90;;
9720;SDS011;4899;42.644;23.366;2023-08-30T02:36:08;10.40;;;9.23;;
9720;SDS011;4899;42.644;23.366;2023-08-30T02:38:34;14.70;;;9.60;;
9720;SDS011;4899;42.644;23.366;2023-08-30T02:40:59;10.83;;;9.77;;
9720;SDS011;4899;42.644;23.366;2023-08-30T02:43:24;11.73;;;10.03;;
9720;SDS011;4899;42.644;23.366;2023-08-30T02:45:50;10.20;;;9.07;;
9720;SDS011;4899;42.644;23.366;2023-08-30T02:48:17;10.93;;;9.83;;
9720;SDS011;4899;42.644;23.366;2023-08-30T02:50:42;8.80;;;7.90;;
9720;SDS011;4899;42.644;23.366;2023-08-30T02:53:08;9.33;;;8.50;;
9720;SDS011;4899;42.644;23.366;2023-08-30T02:55:34;10.03;;;9.03;;
9720;SDS011;4899;42.644;23.366;2023-08-30T02:58:00;9.23;;;8.33;;
9720;SDS011;4899;42.644;23.366;2023-08-30T03:00:28;9.63;;;8.17;;
9720;SDS011;4899;42.644;23.366;2023-08-30T03:02:54;10.17;;;9.07;;
9720;SDS011;4899;42.644;23.366;2023-08-30T03:05:19;9.60;;;8.60;;
9720;SDS011;4899;42.644;23.366;2023-08-30T03:07:44;11.50;;;9.47;;
9720;SDS011;4899;42.644;23.366;2023-08-30T03:10:11;11.80;;;9.00;;
9720;SDS011;4899;42.644;23.366;2023-08-30T03:12:42;10.70;;;9.60;;
9720;SDS011;4899;42.644;23.366;2023-08-30T03:15:08;11.30;;;10.00;;
9720;SDS011;4899;42.644;23.366;2023-08-30T03:17:34;10.70;;;9.60;;
9720;SDS011;4899;42.644;23.366;2023-08-30T03:20:00;10.90;;;9.77;;
9720;SDS011;4899;42.644;23.366;2023-08-30T03:22:25;10.90;;;9.63;;
9720;SDS011;4899;42.644;23.366;2023-08-30T03:24:50;10.43;;;9.40;;
9720;SDS011;4899;42.644;23.366;2023-08-30T03:27:16;11.87;;;9.10;;
9720;SDS011;4899;42.644;23.366;2023-08-30T03:29:42;15.13;;;10.50;;
9720;SDS011;4899;42.644;23.366;2023-08-30T03:32:07;11.27;;;9.17;;
9720;SDS011;4899;42.644;23.366;2023-08-30T03:34:32;10.70;;;9.33;;
9720;SDS011;4899;42.644;23.366;2023-08-30T03:36:58;12.53;;;10.23;;
9720;SDS011;4899;42.644;23.366;2023-08-30T03:39:23;11.90;;;9.80;;
9720;SDS011;4899;42.644;23.366;2023-08-30T03:41:49;11.23;;;10.13;;
9720;SDS011;4899;42.644;23.366;2023-08-30T03:44:15;12.20;;;9.97;;
9720;SDS011;4899;42.644;23.366;2023-08-30T03:46:40;10.57;;;9.57;;
9720;SDS011;4899;42.644;23.366;2023-08-30T03:49:06;12.87;;;10.67;;
9720;SDS011;4899;42.644;23.366;2023-08-30T03:51:34;13.30;;;11.90;;
9720;SDS011;4899;42.644;23.366;2023-08-30T03:53:59;8.77;;;7.87;;
9720;SDS011;4899;42.644;23.366;2023-08-30T03:56:25;9.77;;;7.83;;
9720;SDS011;4899;42.644;23.366;2023-08-30T03:58:50;9.77;;;8.37;;
9720;SDS011;4899;42.644;23.366;2023-08-30T04:01:16;8.60;;;7.70;;
9720;SDS011;4899;42.644;23.366;2023-08-30T04:03:41;7.37;;;6.60;;
9720;SDS011;4899;42.644;23.366;2023-08-30T04:06:06;10.93;;;7.00;;
9720;SDS011;4899;42.644;23.366;2023-08-30T04:08:32;11.37;;;6.60;;
9720;SDS011;4899;42.644;23.366;2023-08-30T04:10:58;11.63;;;7.20;;
9720;SDS011;4899;42.644;23.366;2023-08-30T04:13:23;9.37;;;6.43;;
9720;SDS011;4899;42.644;23.366;2023-08-30T04:15:49;9.90;;;8.20;;
9720;SDS011;4899;42.644;23.366;2023-08-30T04:18:14;16.93;;;13.20;;
9720;SDS011;4899;42.644;23.366;2023-08-30T04:20:43;11.40;;;9.40;;
9720;SDS011;4899;42.644;23.366;2023-08-30T04:23:10;11.97;;;9.37;;
9720;SDS011;4899;42.644;23.366;2023-08-30T04:25:39;8.67;;;7.83;;
9720;SDS011;4899;42.644;23.366;2023-08-30T04:28:04;9.67;;;8.73;;
9720;SDS011;4899;42.644;23.366;2023-08-30T04:30:30;9.13;;;8.20;;
9720;SDS011;4899;42.644;23.366;2023-08-30T04:32:55;8.57;;;7.90;;
9720;SDS011;4899;42.644;23.366;2023-08-30T04:35:21;8.57;;;7.70;;
9720;SDS011;4899;42.644;23.366;2023-08-30T04:37:46;12.70;;;6.83;;
9720;SDS011;4899;42.644;23.366;2023-08-30T04:40:13;9.00;;;8.13;;
9720;SDS011;4899;42.644;23.366;2023-08-30T04:42:39;9.43;;;6.73;;
9720;SDS011;4899;42.644;23.366;2023-08-30T04:45:05;8.97;;;7.13;;
9720;SDS011;4899;42.644;23.366;2023-08-30T04:47:35;8.97;;;7.47;;
9720;SDS011;4899;42.644;23.366;2023-08-30T04:50:00;10.17;;;8.53;;
9720;SDS011;4899;42.644;23.366;2023-08-30T04:52:26;10.47;;;8.67;;
9720;SDS011;4899;42.644;23.366;2023-08-30T04:54:51;10.33;;;8.27;;
9720;SDS011;4899;42.644;23.366;2023-08-30T04:57:17;11.57;;;10.43;;
9720;SDS011;4899;42.644;23.366;2023-08-30T04:59:43;10.80;;;9.73;;
9720;SDS011;4899;42.644;23.366;2023-08-30T05:02:09;10.63;;;9.63;;
9720;SDS011;4899;42.644;23.366;2023-08-30T05:04:35;11.33;;;9.13;;
9720;SDS011;4899;42.644;23.366;2023-08-30T05:07:01;12.70;;;9.50;;
9720;SDS011;4899;42.644;23.366;2023-08-30T05:09:27;10.70;;;9.33;;
9720;SDS011;4899;42.644;23.366;2023-08-30T05:11:52;10.53;;;8.97;;
9720;SDS011;4899;42.644;23.366;2023-08-30T05:14:18;11.30;;;9.87;;
9720;SDS011;4899;42.644;23.366;2023-08-30T05:16:48;11.90;;;9.50;;
9720;SDS011;4899;42.644;23.366;2023-08-30T05:19:14;14.83;;;9.90;;
9720;SDS011;4899;42.644;23.366;2023-08-30T05:21:41;10.93;;;7.97;;
9720;SDS011;4899;42.644;23.366;2023-08-30T05:24:07;11.80;;;8.07;;
9720;SDS011;4899;42.644;23.366;2023-08-30T05:26:32;10.33;;;8.30;;
9720;SDS011;4899;42.644;23.366;2023-08-30T05:28:58;10.63;;;8.87;;
9720;SDS011;4899;42.644;23.366;2023-08-30T05:31:23;12.30;;;10.27;;
9720;SDS011;4899;42.644;23.366;2023-08-30T05:33:49;12.20;;;10.53;;
9720;SDS011;4899;42.644;23.366;2023-08-30T05:36:14;11.20;;;8.73;;
9720;SDS011;4899;42.644;23.366;2023-08-30T05:38:43;9.50;;;8.57;;
9720;SDS011;4899;42.644;23.366;2023-08-30T05:41:11;14.07;;;8.83;;
9720;SDS011;4899;42.644;23.366;2023-08-30T05:43:36;11.50;;;8.80;;
9720;SDS011;4899;42.644;23.366;2023-08-30T05:46:02;10.53;;;9.10;;
9720;SDS011;4899;42.644;23.366;2023-08-30T05:48:32;11.27;;;8.77;;
9720;SDS011;4899;42.644;23.366;2023-08-30T05:50:58;12.77;;;9.00;;
9720;SDS011;4899;42.644;23.366;2023-08-30T05:53:23;10.23;;;8.83;;
9720;SDS011;4899;42.644;23.366;2023-08-30T05:55:49;11.70;;;9.30;;
9720;SDS011;4899;42.644;23.366;2023-08-30T05:58:14;9.73;;;8.80;;
9720;SDS011;4899;42.644;23.366;2023-08-30T06:00:40;9.57;;;6.20;;
9720;SDS011;4899;42.644;23.366;2023-08-30T06:03:06;10.07;;;6.60;;
9720;SDS011;4899;42.644;23.366;2023-08-30T06:05:32;12.60;;;6.30;;
9720;SDS011;4899;42.644;23.366;2023-08-30T06:07:59;5.80;;;4.80;;
9720;SDS011;4899;42.644;23.366;2023-08-30T06:10:24;9.60;;;5.90;;
9720;SDS011;4899;42.644;23.366;2023-08-30T06:12:50;8.53;;;5.87;;
9720;SDS011;4899;42.644;23.366;2023-08-30T06:15:15;9.23;;;5.80;;
9720;SDS011;4899;42.644;23.366;2023-08-30T06:17:41;8.90;;;6.87;;
9720;SDS011;4899;42.644;23.366;2023-08-30T06:20:09;6.87;;;5.47;;
9720;SDS011;4899;42.644;23.366;2023-08-30T06:22:34;8.00;;;7.00;;
9720;SDS011;4899;42.644;23.366;2023-08-30T06:25:00;5.43;;;4.70;;
9720;SDS011;4899;42.644;23.366;2023-08-30T06:27:27;9.67;;;5.67;;
9720;SDS011;4899;42.644;23.366;2023-08-30T06:29:53;9.80;;;6.13;;
9720;SDS011;4899;42.644;23.366;2023-08-30T06:32:18;8.90;;;5.63;;
9720;SDS011;4899;42.644;23.366;2023-08-30T06:34:44;7.13;;;6.43;;
9720;SDS011;4899;42.644;23.366;2023-08-30T06:37:09;9.13;;;5.17;;
9720;SDS011;4899;42.644;23.366;2023-08-30T06:39:40;6.00;;;5.03;;
9720;SDS011;4899;42.644;23.366;2023-08-30T06:42:06;5.00;;;4.50;;
9720;SDS011;4899;42.644;23.366;2023-08-30T06:44:31;5.33;;;4.50;;
9720;SDS011;4899;42.644;23.366;2023-08-30T06:46:57;6.40;;;4.63;;
9720;SDS011;4899;42.644;23.366;2023-08-30T06:49:22;5.53;;;4.50;;
9720;SDS011;4899;42.644;23.366;2023-08-30T06:51:48;6.10;;;4.33;;
9720;SDS011;4899;42.644;23.366;2023-08-30T06:54:16;6.07;;;4.40;;
9720;SDS011;4899;42.644;23.366;2023-08-30T06:56:45;7.73;;;4.80;;
9720;SDS011;4899;42.644;23.366;2023-08-30T06:59:21;8.00;;;4.93;;
9720;SDS011;4899;42.644;23.366;2023-08-30T07:01:48;7.03;;;4.70;;
9720;SDS011;4899;42.644;23.366;2023-08-30T07:04:13;10.17;;;5.50;;
9720;SDS011;4899;42.644;23.366;2023-08-30T07:06:38;6.97;;;4.93;;
9720;SDS011;4899;42.644;23.366;2023-08-30T07:09:04;6.33;;;4.30;;
9720;SDS011;4899;42.644;23.366;2023-08-30T07:11:31;6.37;;;4.70;;
9720;SDS011;4899;42.644;23.366;2023-08-30T07:13:57;7.67;;;4.97;;
9720;SDS011;4899;42.644;23.366;2023-08-30T07:16:22;7.13;;;4.97;;
9720;SDS011;4899;42.644;23.366;2023-08-30T07:18:47;6.97;;;4.77;;
9720;SDS011;4899;42.644;23.366;2023-08-30T07:21:13;7.73;;;4.50;;
9720;SDS011;4899;42.644;23.366;2023-08-30T07:23:38;6.53;;;4.50;;
9720;SDS011;4899;42.644;23.366;2023-08-30T07:26:03;5.47;;;4.80;;
9720;SDS011;4899;42.644;23.366;2023-08-30T07:28:30;6.13;;;5.40;;
9720;SDS011;4899;42.644;23.366;2023-08-30T07:31:01;10.00;;;4.87;;
9720;SDS011;4899;42.644;23.366;2023-08-30T07:33:28;5.30;;;4.20;;
9720;SDS011;4899;42.644;23.366;2023-08-30T07:35:53;5.93;;;4.37;;
9720;SDS011;4899;42.644;23.366;2023-08-30T07:38:19;4.60;;;4.20;;
9720;SDS011;4899;42.644;23.366;2023-08-30T07:40:47;6.37;;;4.20;;
9720;SDS011;4899;42.644;23.366;2023-08-30T07:43:13;7.20;;;3.93;;
9720;SDS011;4899;42.644;23.366;2023-08-30T07:45:38;5.27;;;4.10;;
9720;SDS011;4899;42.644;23.366;2023-08-30T07:48:03;4.73;;;3.77;;
9720;SDS011;4899;42.644;23.366;2023-08-30T07:50:29;4.60;;;4.00;;
9720;SDS011;4899;42.644;23.366;2023-08-30T07:52:54;4.87;;;4.03;;
9720;SDS011;4899;42.644;23.366;2023-08-30T07:55:20;5.83;;;4.33;;
9720;SDS011;4899;42.644;23.366;2023-08-30T07:57:45;8.27;;;4.93;;
9720;SDS011;4899;42.644;23.366;2023-08-30T08:00:11;7.13;;;4.00;;
9720;SDS011;4899;42.644;23.366;2023-08-30T08:02:37;5.13;;;3.90;;
9720;SDS011;4899;42.644;23.366;2023-08-30T08:05:03;6.03;;;3.97;;
9720;SDS011;4899;42.644;23.366;2023-08-30T08:07:28;6.03;;;4.93;;
9720;SDS011;4899;42.644;23.366;2023-08-30T08:09:54;5.83;;;5.33;;
9720;SDS011;4899;42.644;23.366;2023-08-30T08:12:20;6.07;;;5.53;;
9720;SDS011;4899;42.644;23.366;2023-08-30T08:14:45;8.00;;;4.93;;
9720;SDS011;4899;42.644;23.366;2023-08-30T08:17:11;6.10;;;5.53;;
9720;SDS011;4899;42.644;23.366;2023-08-30T08:19:36;9.53;;;5.20;;
9720;SDS011;4899;42.644;23.366;2023-08-30T08:22:04;8.27;;;5.43;;
9720;SDS011;4899;42.644;23.366;2023-08-30T08:24:30;6.93;;;4.77;;
9720;SDS011;4899;42.644;23.366;2023-08-30T08:26:55;8.87;;;4.93;;
9720;SDS011;4899;42.644;23.366;2023-08-30T08:29:26;6.23;;;4.70;;
9720;SDS011;4899;42.644;23.366;2023-08-30T08:31:51;6.33;;;5.03;;
9720;SDS011;4899;42.644;23.366;2023-08-30T08:34:17;6.57;;;5.07;;
9720;SDS011;4899;42.644;23.366;2023-08-30T08:36:51;8.10;;;4.80;;
9720;SDS011;4899;42.644;23.366;2023-08-30T08:39:16;8.40;;;4.93;;
9720;SDS011;4899;42.644;23.366;2023-08-30T08:41:43;6.03;;;5.13;;
9720;SDS011;4899;42.644;23.366;2023-08-30T08:44:10;7.37;;;5.17;;
9720;SDS011;4899;42.644;23.366;2023-08-30T08:46:37;7.40;;;5.27;;
9720;SDS011;4899;42.644;23.366;2023-08-30T08:49:14;5.70;;;4.43;;
9720;SDS011;4899;42.644;23.366;2023-08-30T08:51:40;8.37;;;5.10;;
9720;SDS011;4899;42.644;23.366;2023-08-30T08:54:08;5.47;;;3.67;;
9720;SDS011;4899;42.644;23.366;2023-08-30T08:56:34;4.30;;;3.90;;
9720;SDS011;4899;42.644;23.366;2023-08-30T08:59:00;8.03;;;4.00;;
9720;SDS011;4899;42.644;23.366;2023-08-30T09:01:26;6.30;;;4.77;;
9720;SDS011;4899;42.644;23.366;2023-08-30T09:03:52;7.40;;;4.93;;
9720;SDS011;4899;42.644;23.366;2023-08-30T09:06:18;4.47;;;4.00;;
9720;SDS011;4899;42.644;23.366;2023-08-30T09:08:44;5.33;;;4.00;;
9720;SDS011;4899;42.644;23.366;2023-08-30T09:11:09;7.10;;;4.10;;
9720;SDS011;4899;42.644;23.366;2023-08-30T09:13:35;9.37;;;4.30;;
9720;SDS011;4899;42.644;23.366;2023-08-30T09:16:00;4.23;;;3.80;;
9720;SDS011;4899;42.644;23.366;2023-08-30T09:18:27;6.00;;;3.90;;
9720;SDS011;4899;42.644;23.366;2023-08-30T09:21:15;8.40;;;5.10;;
9720;SDS011;4899;42.644;23.366;2023-08-30T09:23:39;8.03;;;4.20;;
9720;SDS011;4899;42.644;23.366;2023-08-30T09:26:05;5.23;;;4.37;;
9720;SDS011;4899;42.644;23.366;2023-08-30T09:28:30;4.13;;;3.50;;
9720;SDS011;4899;42.644;23.366;2023-08-30T09:30:59;5.30;;;4.23;;
9720;SDS011;4899;42.644;23.366;2023-08-30T09:33:32;5.37;;;3.80;;
9720;SDS011;4899;42.644;23.366;2023-08-30T09:35:59;7.00;;;4.00;;
9720;SDS011;4899;42.644;23.366;2023-08-30T09:38:25;7.77;;;4.53;;
9720;SDS011;4899;42.644;23.366;2023-08-30T09:40:51;6.27;;;4.70;;
9720;SDS011;4899;42.644;23.366;2023-08-30T09:43:18;7.30;;;4.00;;
9720;SDS011;4899;42.644;23.366;2023-08-30T09:45:47;6.28;;;4.13;;
9720;SDS011;4899;42.644;23.366;2023-08-30T09:48:20;9.52;;;4.57;;
9720;SDS011;4899;42.644;23.366;2023-08-30T09:50:47;6.38;;;4.45;;
9720;SDS011;4899;42.644;23.366;2023-08-30T09:53:18;5.82;;;4.30;;
9720;SDS011;4899;42.644;23.366;2023-08-30T09:55:46;5.00;;;4.43;;
9720;SDS011;4899;42.644;23.366;2023-08-30T09:58:14;6.00;;;4.65;;
9720;SDS011;4899;42.644;23.366;2023-08-30T10:00:43;5.43;;;4.32;;
9720;SDS011;4899;42.644;23.366;2023-08-30T10:03:08;4.45;;;4.05;;
9720;SDS011;4899;42.644;23.366;2023-08-30T10:05:35;6.93;;;4.15;;
9720;SDS011;4899;42.644;23.366;2023-08-30T10:08:04;5.82;;;4.28;;
9720;SDS011;4899;42.644;23.366;2023-08-30T10:10:32;14.55;;;13.18;;
9720;SDS011;4899;42.644;23.366;2023-08-30T10:13:01;7.85;;;4.30;;
9720;SDS011;4899;42.644;23.366;2023-08-30T10:15:26;5.95;;;3.90;;
9720;SDS011;4899;42.644;23.366;2023-08-30T10:17:55;4.82;;;4.32;;
9720;SDS011;4899;42.644;23.366;2023-08-30T10:20:23;6.15;;;4.70;;
9720;SDS011;4899;42.644;23.366;2023-08-30T10:22:49;6.07;;;4.57;;
9720;SDS011;4899;42.644;23.366;2023-08-30T10:25:19;4.75;;;4.25;;
9720;SDS011;4899;42.644;23.366;2023-08-30T10:27:48;7.38;;;4.68;;
9720;SDS011;4899;42.644;23.366;2023-08-30T10:30:15;7.60;;;4.82;;
9720;SDS011;4899;42.644;23.366;2023-08-30T10:32:44;7.13;;;4.75;;
9720;SDS011;4899;42.644;23.366;2023-08-30T10:35:13;7.72;;;4.55;;
9720;SDS011;4899;42.644;23.366;2023-08-30T10:37:41;8.80;;;5.10;;
9720;SDS011;4899;42.644;23.366;2023-08-30T10:40:07;5.63;;;4.85;;
9720;SDS011;4899;42.644;23.366;2023-08-30T10:42:36;6.22;;;4.43;;
9720;SDS011;4899;42.644;23.366;2023-08-30T10:45:05;5.97;;;4.07;;
9720;SDS011;4899;42.644;23.366;2023-08-30T10:47:32;6.30;;;4.82;;
9720;SDS011;4899;42.644;23.366;2023-08-30T10:50:06;5.80;;;4.60;;
9720;SDS011;4899;42.644;23.366;2023-08-30T10:52:33;12.05;;;4.93;;
9720;SDS011;4899;42.644;23.366;2023-08-30T10:55:05;9.38;;;5.03;;
9720;SDS011;4899;42.644;23.366;2023-08-30T10:57:35;5.15;;;4.35;;
9720;SDS011;4899;42.644;23.366;2023-08-30T11:00:09;5.15;;;4.30;;
9720;SDS011;4899;42.644;23.366;2023-08-30T11:02:35;6.70;;;4.75;;
9720;SDS011;4899;42.644;23.366;2023-08-30T11:05:07;5.72;;;4.57;;
9720;SDS011;4899;42.644;23.366;2023-08-30T11:07:34;7.88;;;4.75;;
9720;SDS011;4899;42.644;23.366;2023-08-30T11:09:59;6.57;;;4.82;;
9720;SDS011;4899;42.644;23.366;2023-08-30T11:12:25;6.68;;;4.70;;
9720;SDS011;4899;42.644;23.366;2023-08-30T11:14:55;7.95;;;4.85;;
9720;SDS011;4899;42.644;23.366;2023-08-30T11:17:20;5.18;;;4.68;;
9720;SDS011;4899;42.644;23.366;2023-08-30T11:19:46;6.85;;;4.93;;
9720;SDS011;4899;42.644;23.366;2023-08-30T11:22:14;7.85;;;4.90;;
9720;SDS011;4899;42.644;23.366;2023-08-30T11:24:41;6.65;;;5.05;;
9720;SDS011;4899;42.644;23.366;2023-08-30T11:27:07;6.03;;;5.28;;
9720;SDS011;4899;42.644;23.366;2023-08-30T11:29:33;5.32;;;4.82;;
9720;SDS011;4899;42.644;23.366;2023-08-30T11:31:58;7.35;;;4.78;;
9720;SDS011;4899;42.644;23.366;2023-08-30T11:34:29;7.00;;;4.78;;
9720;SDS011;4899;42.644;23.366;2023-08-30T11:36:55;5.10;;;4.60;;
9720;SDS011;4899;42.644;23.366;2023-08-30T11:39:20;6.75;;;5.00;;
9720;SDS011;4899;42.644;23.366;2023-08-30T11:41:47;4.90;;;4.38;;
9720;SDS011;4899;42.644;23.366;2023-08-30T11:44:13;6.05;;;4.65;;
9720;SDS011;4899;42.644;23.366;2023-08-30T11:46:38;5.30;;;4.68;;
9720;SDS011;4899;42.644;23.366;2023-08-30T11:49:04;4.82;;;4.18;;
9720;SDS011;4899;42.644;23.366;2023-08-30T11:51:30;7.13;;;4.57;;
9720;SDS011;4899;42.644;23.366;2023-08-30T11:53:56;5.50;;;4.60;;
9720;SDS011;4899;42.644;23.366;2023-08-30T11:56:22;4.78;;;4.35;;
9720;SDS011;4899;42.644;23.366;2023-08-30T11:58:48;5.13;;;4.20;;
9720;SDS011;4899;42.644;23.366;2023-08-30T12:01:14;5.88;;;4.75;;
9720;SDS011;4899;42.644;23.366;2023-08-30T12:03:39;5.35;;;4.85;;
9720;SDS011;4899;42.644;23.366;2023-08-30T12:06:24;5.53;;;4.68;;
9720;SDS011;4899;42.644;23.366;2023-08-30T12:08:56;5.18;;;4.68;;
9720;SDS011;4899;42.644;23.366;2023-08-30T12:11:25;5.35;;;4.63;;
9720;SDS011;4899;42.644;23.366;2023-08-30T12:13:50;8.57;;;5.05;;
9720;SDS011;4899;42.644;23.366;2023-08-30T12:16:16;6.25;;;4.53;;
9720;SDS011;4899;42.644;23.366;2023-08-30T12:18:43;5.55;;;4.72;;
9720;SDS011;4899;42.644;23.366;2023-08-30T12:21:08;5.50;;;4.95;;
9720;SDS011;4899;42.644;23.366;2023-08-30T12:23:34;5.50;;;5.03;;
9720;SDS011;4899;42.644;23.366;2023-08-30T12:28:26;7.35;;;5.00;;
9720;SDS011;4899;42.644;23.366;2023-08-30T12:30:52;5.20;;;4.70;;
9720;SDS011;4899;42.644;23.366;2023-08-30T12:33:18;5.32;;;4.88;;
9720;SDS011;4899;42.644;23.366;2023-08-30T12:35:44;7.40;;;5.35;;
9720;SDS011;4899;42.644;23.366;2023-08-30T12:38:10;5.82;;;4.53;;
9720;SDS011;4899;42.644;23.366;2023-08-30T12:40:36;5.65;;;5.00;;
9720;SDS011;4899;42.644;23.366;2023-08-30T12:43:03;5.43;;;4.95;;
9720;SDS011;4899;42.644;23.366;2023-08-30T12:45:29;5.45;;;4.90;;
9720;SDS011;4899;42.644;23.366;2023-08-30T12:47:54;6.53;;;5.90;;
9720;SDS011;4899;42.644;23.366;2023-08-30T12:50:24;6.88;;;5.22;;
9720;SDS011;4899;42.644;23.366;2023-08-30T12:52:49;7.43;;;5.55;;
9720;SDS011;4899;42.644;23.366;2023-08-30T12:55:15;6.53;;;4.72;;
9720;SDS011;4899;42.644;23.366;2023-08-30T12:57:42;6.32;;;5.53;;
9720;SDS011;4899;42.644;23.366;2023-08-30T13:00:11;7.80;;;5.40;;
9720;SDS011;4899;42.644;23.366;2023-08-30T13:02:38;6.15;;;5.22;;
9720;SDS011;4899;42.644;23.366;2023-08-30T13:05:03;5.88;;;5.38;;
9720;SDS011;4899;42.644;23.366;2023-08-30T13:07:32;5.95;;;5.32;;
9720;SDS011;4899;42.644;23.366;2023-08-30T13:09:57;5.63;;;5.07;;
9720;SDS011;4899;42.644;23.366;2023-08-30T13:12:22;8.93;;;5.75;;
9720;SDS011;4899;42.644;23.366;2023-08-30T13:14:51;6.40;;;5.90;;
9720;SDS011;4899;42.644;23.366;2023-08-30T13:17:16;5.80;;;5.10;;
9720;SDS011;4899;42.644;23.366;2023-08-30T13:19:45;5.47;;;5.00;;
9720;SDS011;4899;42.644;23.366;2023-08-30T13:22:10;6.88;;;5.20;;
9720;SDS011;4899;42.644;23.366;2023-08-30T13:24:36;7.70;;;5.80;;
9720;SDS011;4899;42.644;23.366;2023-08-30T13:27:02;6.30;;;5.68;;
9720;SDS011;4899;42.644;23.366;2023-08-30T13:29:28;6.10;;;5.15;;
9720;SDS011;4899;42.644;23.366;2023-08-30T13:31:53;7.03;;;4.97;;
9720;SDS011;4899;42.644;23.366;2023-08-30T13:34:19;5.72;;;5.10;;
9720;SDS011;4899;42.644;23.366;2023-08-30T13:36:47;5.82;;;5.32;;
9720;SDS011;4899;42.644;23.366;2023-08-30T13:39:12;6.50;;;4.80;;
9720;SDS011;4899;42.644;23.366;2023-08-30T13:41:37;5.03;;;4.55;;
9720;SDS011;4899;42.644;23.366;2023-08-30T13:44:07;5.22;;;4.72;;
9720;SDS011;4899;42.644;23.366;2023-08-30T13:46:32;7.82;;;5.35;;
9720;SDS011;4899;42.644;23.366;2023-08-30T13:48:58;5.43;;;4.82;;
9720;SDS011;4899;42.644;23.366;2023-08-30T13:51:24;7.32;;;5.32;;
9720;SDS011;4899;42.644;23.366;2023-08-30T13:53:51;5.18;;;4.68;;
9720;SDS011;4899;42.644;23.366;2023-08-30T13:56:16;6.32;;;4.30;;
9720;SDS011;4899;42.644;23.366;2023-08-30T13:58:42;7.43;;;4.75;;
9720;SDS011;4899;42.644;23.366;2023-08-30T14:01:07;4.72;;;4.35;;
9720;SDS011;4899;42.644;23.366;2023-08-30T14:03:33;5.50;;;4.97;;
9720;SDS011;4899;42.644;23.366;2023-08-30T14:05:58;5.20;;;4.60;;
9720;SDS011;4899;42.644;23.366;2023-08-30T14:08:24;8.10;;;4.85;;
9720;SDS011;4899;42.644;23.366;2023-08-30T14:10:49;4.97;;;4.55;;
9720;SDS011;4899;42.644;23.366;2023-08-30T14:13:17;4.45;;;4.15;;
9720;SDS011;4899;42.644;23.366;2023-08-30T14:15:43;5.63;;;4.05;;
9720;SDS011;4899;42.644;23.366;2023-08-30T14:18:14;5.03;;;4.13;;
9720;SDS011;4899;42.644;23.366;2023-08-30T14:20:40;5.10;;;3.55;;
9720;SDS011;4899;42.644;23.366;2023-08-30T14:23:06;5.97;;;4.32;;
9720;SDS011;4899;42.644;23.366;2023-08-30T14:25:32;4.63;;;3.78;;
9720;SDS011;4899;42.644;23.366;2023-08-30T14:27:58;5.22;;;4.75;;
9720;SDS011;4899;42.644;23.366;2023-08-30T14:30:24;4.38;;;3.70;;
9720;SDS011;4899;42.644;23.366;2023-08-30T14:32:50;4.38;;;4.03;;
9720;SDS011;4899;42.644;23.366;2023-08-30T14:35:16;4.55;;;3.97;;
9720;SDS011;4899;42.644;23.366;2023-08-30T14:37:41;4.45;;;3.75;;
9720;SDS011;4899;42.644;23.366;2023-08-30T14:40:07;3.67;;;3.38;;
9720;SDS011;4899;42.644;23.366;2023-08-30T14:42:33;3.47;;;3.13;;
9720;SDS011;4899;42.644;23.366;2023-08-30T14:44:58;5.35;;;3.47;;
9720;SDS011;4899;42.644;23.366;2023-08-30T14:47:24;5.13;;;3.67;;
9720;SDS011;4899;42.644;23.366;2023-08-30T14:49:49;5.00;;;3.42;;
9720;SDS011;4899;42.644;23.366;2023-08-30T14:52:15;5.18;;;3.67;;
9720;SDS011;4899;42.644;23.366;2023-08-30T14:54:41;3.25;;;2.90;;
9720;SDS011;4899;42.644;23.366;2023-08-30T14:57:08;5.05;;;3.25;;